Time;durP1;ratioP1;P1;durP2;ratioP2;P2;SDS_P1;SDS_P2;PMS_P1;PMS_P2;Temp;Humidity;BMP_temperature;BMP_pressure;BME280_temperature;BME280_humidity;BME280_pressure;Samples;Min_cycle;Max_cycle;Signal;HPM_P1;HPM_P2
2022/12/18 00:01:35;;;;;;;12.57;11.67;;;;;;;7.25;100.00;93492.31;5091716;28;20228;-71
2022/12/18 00:04:07;;;;;;;12.70;11.77;;;;;;;7.41;100.00;93496.72;5092020;28;20189;-71
2022/12/18 00:06:34;;;;;;;13.00;12.27;;;;;;;7.34;100.00;93500.50;5086224;28;20244;-71
2022/12/18 00:09:00;;;;;;;12.63;11.83;;;;;;;7.08;100.00;93507.09;5074106;28;20236;-71
2022/12/18 00:11:29;;;;;;;12.03;11.33;;;;;;;6.98;100.00;93506.94;5091844;28;20240;-71
2022/12/18 00:13:56;;;;;;;13.53;12.63;;;;;;;7.00;100.00;93493.72;5093537;28;20185;-71
2022/12/18 00:16:24;;;;;;;13.00;12.10;;;;;;;6.83;100.00;93519.66;5098996;28;20248;-71
2022/12/18 00:18:52;;;;;;;13.70;12.80;;;;;;;6.73;100.00;93498.72;5086793;28;20214;-71
2022/12/18 00:21:19;;;;;;;14.90;13.73;;;;;;;6.88;100.00;93516.38;5090146;28;20236;-71
2022/12/18 00:23:45;;;;;;;11.97;11.17;;;;;;;7.05;100.00;93523.13;5091974;28;20195;-71
2022/12/18 00:26:14;;;;;;;13.90;12.97;;;;;;;7.18;100.00;93528.03;5091849;28;20234;-71
2022/12/18 00:28:40;;;;;;;13.53;12.47;;;;;;;6.96;100.00;93532.31;5091301;28;20203;-71
2022/12/18 00:31:08;;;;;;;14.23;13.27;;;;;;;6.92;100.00;93533.81;5091845;28;20872;-71
2022/12/18 00:33:34;;;;;;;14.83;13.67;;;;;;;6.79;100.00;93522.94;5089710;28;20241;-71
2022/12/18 00:36:04;;;;;;;13.80;12.70;;;;;;;6.88;100.00;93535.28;5079627;28;20233;-71
2022/12/18 00:38:29;;;;;;;13.53;12.63;;;;;;;6.89;100.00;93536.88;5091011;28;20193;-71
2022/12/18 00:40:54;;;;;;;13.20;12.30;;;;;;;7.08;100.00;93533.03;5090751;28;20220;-71
2022/12/18 00:43:20;;;;;;;13.30;12.40;;;;;;;7.07;100.00;93536.69;5103137;28;20205;-71
2022/12/18 00:45:45;;;;;;;13.07;12.17;;;;;;;6.96;100.00;93529.72;5090946;28;20225;-71
2022/12/18 00:48:10;;;;;;;14.23;13.17;;;;;;;6.98;100.00;93543.28;5090872;28;20176;-71
2022/12/18 00:50:36;;;;;;;12.70;11.77;;;;;;;6.57;100.00;93543.53;5083417;28;20185;-71
2022/12/18 00:53:01;;;;;;;13.97;12.87;;;;;;;6.63;100.00;93544.44;5090948;28;20283;-71
2022/12/18 00:55:26;;;;;;;12.97;12.03;;;;;;;6.61;100.00;93546.47;5090979;28;20201;-71
2022/12/18 00:57:52;;;;;;;12.83;11.93;;;;;;;6.42;100.00;93551.03;5091032;28;20177;-71
2022/12/18 01:00:18;;;;;;;13.37;12.37;;;;;;;6.40;100.00;93547.88;5091065;28;20273;-71
2022/12/18 01:02:43;;;;;;;13.10;12.00;;;;;;;6.45;100.00;93555.78;5087401;28;20209;-71
2022/12/18 01:05:10;;;;;;;13.47;12.57;;;;;;;6.45;100.00;93559.16;5071981;28;20229;-71
2022/12/18 01:07:36;;;;;;;13.33;12.33;;;;;;;6.56;100.00;93554.94;5090540;28;20719;-71
2022/12/18 01:10:01;;;;;;;13.83;12.83;;;;;;;6.52;100.00;93559.03;5090526;28;20188;-71
2022/12/18 01:12:26;;;;;;;13.87;12.87;;;;;;;6.47;100.00;93570.06;5077385;28;20220;-71
2022/12/18 01:14:52;;;;;;;14.20;13.10;;;;;;;6.44;100.00;93552.38;5090111;28;20211;-71
2022/12/18 01:17:17;;;;;;;13.40;12.50;;;;;;;6.38;100.00;93566.28;5090386;28;20227;-71
2022/12/18 01:19:43;;;;;;;13.10;12.20;;;;;;;6.12;100.00;93551.22;5090553;28;20240;-71
2022/12/18 01:22:08;;;;;;;15.00;13.63;;;;;;;6.02;100.00;93568.38;5090142;28;20212;-71
2022/12/18 01:24:34;;;;;;;13.77;12.77;;;;;;;5.95;100.00;93570.28;5089191;28;20184;-71
2022/12/18 01:26:59;;;;;;;13.73;12.67;;;;;;;5.44;100.00;93523.53;5089860;28;20216;-71
2022/12/18 01:29:24;;;;;;;14.37;13.23;;;;;;;5.51;100.00;93576.78;5090779;28;20287;-71
2022/12/18 01:31:50;;;;;;;14.20;13.00;;;;;;;5.41;100.00;93575.75;5089820;28;20295;-71
2022/12/18 01:34:15;;;;;;;13.97;12.87;;;;;;;5.53;100.00;93573.97;5062039;28;20632;-71
2022/12/18 01:36:40;;;;;;;13.50;12.40;;;;;;;5.56;100.00;93581.28;5081478;28;20209;-71
2022/12/18 01:39:10;;;;;;;14.27;13.20;;;;;;;5.44;100.00;93585.66;5072876;28;20187;-71
2022/12/18 01:44:57;;;;;;;14.83;13.63;;;;;;;5.46;100.00;93581.84;5090140;28;20191;-71
2022/12/18 01:47:26;;;;;;;14.83;13.63;;;;;;;5.73;100.00;93588.16;5089878;28;20282;-71
2022/12/18 01:49:52;;;;;;;15.20;14.00;;;;;;;5.40;100.00;93584.53;5089058;28;20207;-71
2022/12/18 01:52:19;;;;;;;14.77;13.67;;;;;;;5.43;100.00;93569.31;5077853;28;20217;-71
2022/12/18 01:54:47;;;;;;;15.40;14.10;;;;;;;5.62;100.00;93586.34;5090330;28;20192;-71
2022/12/18 01:57:13;;;;;;;15.20;14.00;;;;;;;5.79;100.00;93589.84;5088433;28;20286;-71
2022/12/18 01:59:40;;;;;;;15.87;14.37;;;;;;;5.45;100.00;93588.03;5089319;28;20193;-71
2022/12/18 02:02:07;;;;;;;16.37;14.83;;;;;;;5.29;100.00;93588.69;5084392;28;20222;-71
2022/12/18 02:04:32;;;;;;;16.47;14.97;;;;;;;5.28;100.00;93587.09;5090032;28;20183;-71
2022/12/18 02:07:18;;;;;;;16.20;14.80;;;;;;;5.36;100.00;93594.56;5089321;28;20217;-71
2022/12/18 02:09:56;;;;;;;15.77;14.23;;;;;;;5.16;100.00;93604.41;5048252;28;20207;-71
2022/12/18 02:12:26;;;;;;;14.70;13.30;;;;;;;5.38;100.00;93596.91;5089223;28;20228;-71
2022/12/18 02:15:15;;;;;;;15.57;14.27;;;;;;;5.61;100.00;93607.31;5090034;28;20181;-73
2022/12/18 02:17:52;;;;;;;15.17;13.93;;;;;;;5.43;100.00;93608.16;5082361;28;20293;-71
2022/12/18 02:20:23;;;;;;;16.00;14.63;;;;;;;5.23;100.00;93605.09;5077545;28;20224;-71
2022/12/18 02:23:18;;;;;;;15.57;14.37;;;;;;;5.31;100.00;93616.94;5089668;28;20300;-72
2022/12/18 02:26:30;;;;;;;15.77;14.40;;;;;;;5.18;100.00;93606.78;5089189;28;20236;-71
2022/12/18 02:29:02;;;;;;;16.27;14.70;;;;;;;5.30;100.00;93612.75;5044367;28;20192;-71
2022/12/18 02:31:33;;;;;;;15.00;13.80;;;;;;;5.39;100.00;93599.28;5070125;28;20221;-71
2022/12/18 02:34:03;;;;;;;16.80;15.20;;;;;;;5.53;100.00;93615.41;5081787;28;20188;-71
2022/12/18 02:36:29;;;;;;;16.07;14.67;;;;;;;5.49;100.00;93604.72;5087028;28;20269;-71
2022/12/18 02:38:56;;;;;;;15.10;13.77;;;;;;;5.24;100.00;93611.06;5093654;28;20177;-71
2022/12/18 02:41:24;;;;;;;15.63;14.33;;;;;;;5.19;100.00;93613.53;5093103;28;20216;-71
2022/12/18 02:43:55;;;;;;;15.53;14.10;;;;;;;5.42;100.00;93618.75;5093877;28;20216;-72
2022/12/18 02:46:34;;;;;;;15.60;14.10;;;;;;;5.56;100.00;93626.09;5088193;28;20243;-71
2022/12/18 02:49:36;;;;;;;16.07;14.73;;;;;;;5.37;100.00;93622.00;5093682;28;20732;-72
2022/12/18 02:52:09;;;;;;;15.73;14.33;;;;;;;5.30;100.00;93616.16;5084269;28;20235;-72
2022/12/18 02:54:56;;;;;;;16.07;14.80;;;;;;;5.40;100.00;93620.78;5093977;28;20197;-71
2022/12/18 02:57:25;;;;;;;14.33;13.23;;;;;;;5.22;100.00;93619.06;5073946;28;20228;-71
2022/12/18 03:00:22;;;;;;;17.00;15.53;;;;;;;5.14;100.00;93621.19;5093240;28;20204;-71
2022/12/18 03:03:02;;;;;;;15.70;14.33;;;;;;;5.13;100.00;93629.94;5087401;28;20201;-71
2022/12/18 03:05:33;;;;;;;15.17;13.97;;;;;;;5.28;100.00;93623.34;5091958;28;20188;-71
2022/12/18 03:08:12;;;;;;;15.80;14.40;;;;;;;5.25;100.00;93634.16;5093306;28;20236;-71
2022/12/18 03:10:44;;;;;;;16.17;14.90;;;;;;;5.08;100.00;93632.38;5091998;28;20196;-72
2022/12/18 03:13:16;;;;;;;14.87;13.47;;;;;;;5.23;100.00;93635.38;5093297;28;20176;-71
2022/12/18 03:15:49;;;;;;;14.57;13.47;;;;;;;5.20;100.00;93622.88;5092360;28;20221;-71
2022/12/18 03:18:21;;;;;;;14.93;13.73;;;;;;;5.09;100.00;93639.94;5093104;28;20218;-71
2022/12/18 03:20:49;;;;;;;13.97;13.00;;;;;;;5.06;100.00;93627.44;5091773;28;20228;-72
2022/12/18 03:23:22;;;;;;;14.20;13.07;;;;;;;5.13;100.00;93640.28;5088225;28;20188;-70
2022/12/18 03:25:51;;;;;;;14.63;13.53;;;;;;;5.03;100.00;93640.81;5092657;28;20243;-72
2022/12/18 03:28:21;;;;;;;13.23;12.20;;;;;;;5.09;100.00;93641.75;5080655;28;20197;-71
2022/12/18 03:30:49;;;;;;;15.10;13.83;;;;;;;5.09;100.00;93644.34;5087858;28;20232;-72
2022/12/18 03:33:32;;;;;;;14.43;13.43;;;;;;;5.12;100.00;93638.72;5092638;28;20184;-71
2022/12/18 03:35:57;;;;;;;15.63;14.40;;;;;;;5.33;100.00;93654.53;5092337;28;20224;-71
2022/12/18 03:38:23;;;;;;;15.23;13.97;;;;;;;5.08;100.00;93653.09;5090648;28;20184;-71
2022/12/18 03:41:03;;;;;;;13.90;12.83;;;;;;;5.24;100.00;93665.44;5068317;28;20227;-71
2022/12/18 03:43:47;;;;;;;13.43;12.53;;;;;;;5.11;100.00;93673.34;5092381;28;20192;-71
2022/12/18 03:46:20;;;;;;;13.60;12.70;;;;;;;4.93;100.00;93674.97;5087966;28;20296;-71
2022/12/18 03:48:51;;;;;;;12.70;11.90;;;;;;;4.90;100.00;93677.22;5082242;28;20185;-70
2022/12/18 03:51:27;;;;;;;12.47;11.57;;;;;;;4.83;100.00;93663.56;5082332;28;20216;-71
2022/12/18 03:53:59;;;;;;;12.00;11.27;;;;;;;4.82;100.00;93674.94;5092803;28;20199;-70
2022/12/18 03:56:29;;;;;;;12.83;11.87;;;;;;;4.69;100.00;93669.91;5077845;28;20235;-70
2022/12/18 03:58:56;;;;;;;13.70;12.57;;;;;;;4.59;100.00;93685.16;5086139;28;20181;-71
2022/12/18 04:01:28;;;;;;;11.50;10.67;;;;;;;4.68;100.00;93678.66;5091747;28;20224;-71
2022/12/18 04:03:55;;;;;;;14.17;13.13;;;;;;;4.75;100.00;93690.53;5092227;28;20726;-71
2022/12/18 04:06:21;;;;;;;12.57;11.67;;;;;;;4.65;100.00;93681.69;5091764;28;20221;-71
2022/12/18 04:08:47;;;;;;;12.40;11.53;;;;;;;4.65;100.00;93697.22;5092253;28;20220;-71
2022/12/18 04:11:12;;;;;;;12.07;11.27;;;;;;;4.55;100.00;93694.31;5098063;28;20224;-69
2022/12/18 04:13:38;;;;;;;13.33;12.43;;;;;;;4.45;100.00;93699.97;5092856;28;20186;-69
2022/12/18 04:16:04;;;;;;;13.60;12.50;;;;;;;4.32;100.00;93694.97;5091724;28;20246;-69
2022/12/18 04:18:30;;;;;;;13.27;12.27;;;;;;;4.37;100.00;93700.25;5078955;28;20241;-69
2022/12/18 04:20:55;;;;;;;12.83;12.03;;;;;;;4.35;100.00;93715.22;5086507;28;20238;-71
2022/12/18 04:23:21;;;;;;;12.67;11.77;;;;;;;4.23;100.00;93693.66;5096274;28;20208;-70
2022/12/18 04:25:49;;;;;;;11.43;10.70;;;;;;;4.36;100.00;93714.19;5091629;28;20243;-71
2022/12/18 04:28:14;;;;;;;13.20;12.40;;;;;;;4.23;100.00;93690.28;5087433;28;20188;-72
2022/12/18 04:30:40;;;;;;;11.83;11.03;;;;;;;4.24;100.00;93715.91;5091492;28;20228;-70
2022/12/18 04:33:10;;;;;;;13.80;12.70;;;;;;;4.24;100.00;93721.09;5079761;28;20224;-72
2022/12/18 04:35:35;;;;;;;12.77;11.67;;;;;;;4.17;100.00;93722.91;5091351;28;20196;-71
2022/12/18 04:38:00;;;;;;;12.40;11.60;;;;;;;4.18;100.00;93727.09;5090837;28;20240;-71
2022/12/18 04:40:26;;;;;;;12.73;11.83;;;;;;;4.04;100.00;93715.28;5090003;28;20216;-71
2022/12/18 04:42:51;;;;;;;12.40;11.60;;;;;;;4.26;100.00;93732.00;5079266;28;20189;-70
2022/12/18 04:45:17;;;;;;;11.60;10.83;;;;;;;4.11;100.00;93733.34;5091665;28;20193;-71
2022/12/18 04:47:42;;;;;;;13.40;12.50;;;;;;;4.31;100.00;93746.88;5090465;28;20280;-71
2022/12/18 04:50:08;;;;;;;12.50;11.60;;;;;;;4.24;100.00;93748.72;5091471;28;20200;-71
2022/12/18 04:52:33;;;;;;;12.93;12.03;;;;;;;4.01;100.00;93751.91;5090581;28;20216;-71
2022/12/18 04:54:58;;;;;;;12.97;11.87;;;;;;;4.17;100.00;93748.75;5091927;28;20287;-71
2022/12/18 04:57:24;;;;;;;13.60;12.43;;;;;;;3.98;100.00;93725.69;5085343;28;20237;-71
2022/12/18 04:59:49;;;;;;;12.57;11.57;;;;;;;4.04;100.00;93742.91;5072873;28;20203;-71
2022/12/18 05:02:14;;;;;;;12.47;11.57;;;;;;;4.07;100.00;93758.78;5090479;28;20220;-71
2022/12/18 05:04:40;;;;;;;12.90;11.70;;;;;;;4.07;100.00;93753.63;5091464;28;20208;-71
2022/12/18 05:07:05;;;;;;;13.63;12.47;;;;;;;4.01;100.00;93754.47;5090294;28;20228;-71
2022/12/18 05:09:30;;;;;;;13.40;12.47;;;;;;;4.03;100.00;93764.59;5078355;28;20185;-71
2022/12/18 05:11:56;;;;;;;13.83;12.63;;;;;;;3.99;100.00;93778.91;5090210;28;20230;-70
2022/12/18 05:14:21;;;;;;;13.33;12.13;;;;;;;4.09;100.00;93750.84;5090892;28;20870;-70
2022/12/18 05:16:47;;;;;;;12.80;11.77;;;;;;;4.10;100.00;93784.22;5090614;28;20231;-72
2022/12/18 05:19:12;;;;;;;13.13;12.13;;;;;;;4.10;100.00;93775.66;5092803;28;20192;-72
2022/12/18 05:21:37;;;;;;;13.23;12.27;;;;;;;3.93;100.00;93777.19;5095466;28;20698;-70
2022/12/18 05:24:03;;;;;;;14.07;12.90;;;;;;;4.15;100.00;93786.97;5072479;28;20521;-70
2022/12/18 05:26:29;;;;;;;12.83;11.93;;;;;;;4.16;100.00;93798.06;5090013;28;20213;-70
2022/12/18 05:28:54;;;;;;;13.40;12.37;;;;;;;4.14;100.00;93798.28;5090577;28;20193;-70
2022/12/18 05:31:19;;;;;;;14.03;12.90;;;;;;;4.01;100.00;93797.59;5089978;28;20228;-70
2022/12/18 05:33:45;;;;;;;13.17;12.23;;;;;;;4.24;100.00;93808.94;5083669;28;20177;-70
2022/12/18 05:36:11;;;;;;;14.50;13.40;;;;;;;4.22;100.00;93803.19;5084642;28;20216;-71
2022/12/18 05:38:38;;;;;;;12.63;11.73;;;;;;;4.41;100.00;93816.97;5090475;28;20181;-72
2022/12/18 05:41:04;;;;;;;14.20;12.90;;;;;;;4.10;100.00;93810.06;5089651;28;20224;-71
2022/12/18 05:43:30;;;;;;;13.07;12.13;;;;;;;4.11;100.00;93813.44;5090333;28;20192;-70
2022/12/18 05:45:57;;;;;;;13.33;12.33;;;;;;;4.09;100.00;93818.00;5089593;28;20323;-71
2022/12/18 05:48:23;;;;;;;19.97;18.67;;;;;;;4.18;100.00;93822.72;5090427;28;20181;-70
2022/12/18 05:50:50;;;;;;;14.30;13.10;;;;;;;4.27;100.00;93805.94;5089729;28;20263;-71
2022/12/18 05:53:18;;;;;;;14.23;13.23;;;;;;;4.23;99.96;93825.47;5089749;28;20275;-70
2022/12/18 05:55:43;;;;;;;14.30;13.20;;;;;;;4.13;100.00;93835.47;5085372;28;20217;-71
2022/12/18 05:58:11;;;;;;;13.07;12.07;;;;;;;4.35;100.00;93828.94;5088985;28;20226;-70
2022/12/18 06:00:42;;;;;;;14.93;13.83;;;;;;;4.26;100.00;93840.56;5089723;28;20236;-71
2022/12/18 06:03:09;;;;;;;15.93;14.33;;;;;;;3.99;100.00;93833.97;5078871;28;20181;-70
2022/12/18 06:05:45;;;;;;;17.00;15.50;;;;;;;3.89;100.00;93831.03;5089624;28;20199;-71
2022/12/18 06:08:11;;;;;;;16.30;14.90;;;;;;;3.86;100.00;93844.38;5090126;28;20187;-71
2022/12/18 06:10:37;;;;;;;16.23;14.63;;;;;;;3.79;100.00;93846.22;5084045;28;20207;-70
2022/12/18 06:13:03;;;;;;;16.90;15.33;;;;;;;3.90;100.00;93842.97;5089911;28;20237;-71
2022/12/18 06:15:28;;;;;;;16.10;14.53;;;;;;;3.87;100.00;93825.31;5070933;28;20189;-71
2022/12/18 06:17:54;;;;;;;16.37;15.00;;;;;;;3.98;100.00;93847.91;5090067;28;20181;-70
2022/12/18 06:20:19;;;;;;;15.23;13.67;;;;;;;3.93;100.00;93855.47;5089336;28;20224;-70
2022/12/18 06:22:46;;;;;;;15.43;13.97;;;;;;;3.92;100.00;93846.13;5082330;28;20201;-70
2022/12/18 06:25:11;;;;;;;16.07;14.70;;;;;;;3.84;100.00;93859.31;5087235;28;20230;-70
2022/12/18 06:27:37;;;;;;;16.83;15.07;;;;;;;4.00;100.00;93855.44;5089828;28;20231;-70
2022/12/18 06:30:03;;;;;;;15.27;13.87;;;;;;;4.02;100.00;93853.41;5087539;28;20193;-70
2022/12/18 06:32:29;;;;;;;15.70;14.07;;;;;;;4.04;100.00;93854.81;5089607;28;20296;-70
2022/12/18 06:34:55;;;;;;;15.30;14.13;;;;;;;4.15;98.46;93869.66;5089828;28;20180;-70
2022/12/18 06:37:21;;;;;;;15.03;13.53;;;;;;;4.16;98.24;93865.25;5089793;28;20254;-71
2022/12/18 06:39:46;;;;;;;16.43;15.07;;;;;;;4.17;98.84;93857.28;5085642;28;20197;-71
2022/12/18 06:42:11;;;;;;;14.17;12.97;;;;;;;4.36;96.98;93871.88;5089157;28;20231;-71
2022/12/18 06:44:37;;;;;;;14.63;13.40;;;;;;;4.27;97.45;93869.75;5089737;28;20184;-70
2022/12/18 06:47:02;;;;;;;15.43;14.07;;;;;;;4.26;96.01;93881.13;5089095;28;20251;-72
2022/12/18 06:49:28;;;;;;;15.47;14.27;;;;;;;4.14;96.68;93880.19;5089921;28;20192;-72
2022/12/18 06:51:53;;;;;;;17.27;15.57;;;;;;;4.26;96.97;93881.91;5070024;28;20213;-69
2022/12/18 06:54:18;;;;;;;15.53;14.23;;;;;;;4.10;96.11;93871.25;5085857;28;20188;-69
2022/12/18 06:56:47;;;;;;;15.67;14.43;;;;;;;4.20;96.24;93893.06;5098142;28;20281;-69
2022/12/18 06:59:13;;;;;;;14.63;13.40;;;;;;;4.22;94.51;93896.22;5068438;28;20176;-70
2022/12/18 07:01:38;;;;;;;14.33;13.10;;;;;;;4.09;94.54;93898.91;5078702;28;20285;-70
2022/12/18 07:04:03;;;;;;;13.90;12.67;;;;;;;4.14;94.96;93893.91;5088734;28;20188;-70
2022/12/18 07:06:29;;;;;;;14.67;13.40;;;;;;;4.27;95.69;93905.94;5088987;28;20221;-69
2022/12/18 07:08:55;;;;;;;14.47;13.33;;;;;;;4.32;93.17;93903.53;5084694;28;20181;-70
2022/12/18 07:11:20;;;;;;;16.00;14.60;;;;;;;4.39;92.81;93906.88;5089241;28;20254;-71
2022/12/18 07:13:46;;;;;;;15.57;14.23;;;;;;;4.12;92.98;93885.56;5087344;28;20181;-70
2022/12/18 07:16:18;;;;;;;15.27;14.03;;;;;;;4.38;92.19;93906.09;5077919;28;20287;-69
2022/12/18 07:18:43;;;;;;;15.93;14.60;;;;;;;4.34;92.34;93910.06;5085277;28;20166;-70
2022/12/18 07:21:12;;;;;;;14.07;12.87;;;;;;;4.37;92.45;93904.47;5089035;28;20236;-69
2022/12/18 07:23:38;;;;;;;15.40;13.83;;;;;;;4.39;91.57;93912.81;5086688;28;20193;-69
2022/12/18 07:26:05;;;;;;;16.70;15.17;;;;;;;4.33;91.27;93908.50;5093336;28;20288;-69
2022/12/18 07:28:32;;;;;;;15.73;14.43;;;;;;;4.17;92.55;93898.66;5093002;28;20197;-68
2022/12/18 07:30:58;;;;;;;15.60;14.20;;;;;;;4.26;90.54;93918.09;5092357;28;20290;-69
2022/12/18 07:33:24;;;;;;;14.57;13.27;;;;;;;4.27;90.04;93918.88;5092775;28;20195;-69
2022/12/18 07:35:50;;;;;;;15.63;14.33;;;;;;;4.32;91.19;93924.22;5081970;28;20241;-70
2022/12/18 07:38:15;;;;;;;14.83;13.70;;;;;;;4.33;90.78;93923.19;5091225;28;20193;-69
2022/12/18 07:40:40;;;;;;;14.37;13.17;;;;;;;4.41;93.45;93931.53;5091697;28;20224;-69
2022/12/18 07:43:06;;;;;;;15.37;14.00;;;;;;;4.22;91.81;93918.69;5076036;28;20236;-72
2022/12/18 07:45:31;;;;;;;15.27;13.97;;;;;;;4.16;91.46;93928.09;5092062;28;20192;-70
2022/12/18 07:47:56;;;;;;;15.83;14.43;;;;;;;4.25;92.15;93934.59;5076846;28;20253;-69
2022/12/18 07:50:22;;;;;;;15.40;13.90;;;;;;;4.48;90.93;93942.59;5083852;28;20307;-70
2022/12/18 07:52:47;;;;;;;14.97;13.57;;;;;;;4.62;90.76;93938.91;5092143;28;20181;-71
2022/12/18 07:55:12;;;;;;;15.27;13.77;;;;;;;4.52;92.92;93943.78;5091170;28;20181;-70
2022/12/18 07:57:38;;;;;;;16.93;14.80;;;;;;;4.46;91.57;93942.03;5087849;28;20224;-71
2022/12/18 08:00:04;;;;;;;16.00;14.57;;;;;;;4.35;89.47;93952.22;5086179;28;20209;-71
2022/12/18 08:02:31;;;;;;;16.27;14.93;;;;;;;4.18;90.17;93946.78;5085960;28;20252;-70
2022/12/18 08:04:56;;;;;;;15.87;14.47;;;;;;;4.17;89.54;93942.56;5082916;28;20172;-71
2022/12/18 08:07:22;;;;;;;16.13;14.57;;;;;;;4.19;90.51;93953.50;5086870;28;20238;-71
2022/12/18 08:09:47;;;;;;;15.87;14.23;;;;;;;4.27;90.95;93958.44;5091010;28;20227;-71
2022/12/18 08:12:12;;;;;;;16.40;14.90;;;;;;;4.33;91.21;93970.53;5090200;28;20223;-70
2022/12/18 08:14:38;;;;;;;17.27;15.40;;;;;;;4.22;91.12;93973.78;5091374;28;20188;-70
2022/12/18 08:17:03;;;;;;;17.03;15.30;;;;;;;4.36;91.31;93984.81;5090633;28;20224;-68
2022/12/18 08:19:29;;;;;;;17.97;16.37;;;;;;;4.21;92.41;93985.13;5072941;28;20221;-69
2022/12/18 08:21:54;;;;;;;18.27;15.80;;;;;;;4.25;93.00;93985.50;5088130;28;20220;-70
2022/12/18 08:24:19;;;;;;;18.07;16.27;;;;;;;4.22;93.27;93991.88;5089378;28;20218;-70
2022/12/18 08:26:45;;;;;;;19.47;17.60;;;;;;;4.36;92.55;93988.22;5090527;28;20255;-71
2022/12/18 08:29:10;;;;;;;19.70;17.50;;;;;;;4.23;92.18;93995.25;5090490;28;20205;-69
2022/12/18 08:31:36;;;;;;;17.87;16.17;;;;;;;4.22;92.54;93978.94;5090512;28;20224;-72
2022/12/18 08:34:01;;;;;;;19.73;17.67;;;;;;;4.43;93.01;93999.34;5083679;28;20199;-71
2022/12/18 08:36:26;;;;;;;18.07;16.20;;;;;;;4.42;91.71;93997.72;5082529;28;20281;-71
2022/12/18 08:38:52;;;;;;;18.83;16.97;;;;;;;4.35;90.77;94004.75;5084894;28;20199;-71
2022/12/18 08:41:18;;;;;;;19.53;17.40;;;;;;;4.36;91.85;94006.31;5085459;28;20246;-71
2022/12/18 08:46:34;;;;;;;21.20;17.93;;;;;;;4.23;93.04;94015.94;5086369;28;20292;-71
2022/12/18 08:49:00;;;;;;;20.03;17.70;;;;;;;4.46;92.15;94011.84;5089286;28;20177;-71
2022/12/18 08:51:25;;;;;;;19.87;17.80;;;;;;;4.19;92.77;94014.72;5089473;28;20220;-71
2022/12/18 08:53:50;;;;;;;18.07;16.20;;;;;;;4.03;92.42;93990.16;5086965;28;20181;-70
2022/12/18 08:56:16;;;;;;;20.00;17.83;;;;;;;4.29;91.40;93997.81;5086647;28;20227;-71
2022/12/18 08:58:42;;;;;;;18.93;17.10;;;;;;;4.49;95.60;94006.25;5089189;28;20302;-71
2022/12/18 09:01:09;;;;;;;19.47;17.43;;;;;;;4.25;92.56;94006.97;5087259;28;20233;-70
2022/12/18 09:03:35;;;;;;;19.23;17.33;;;;;;;4.49;93.94;94008.84;5086585;28;20219;-71
2022/12/18 09:06:01;;;;;;;24.07;18.57;;;;;;;4.55;91.87;94005.44;5086366;28;20402;-72
2022/12/18 09:08:26;;;;;;;20.73;16.63;;;;;;;4.53;92.28;93991.91;5089435;28;20232;-71
2022/12/18 09:10:52;;;;;;;24.10;18.70;;;;;;;4.72;93.05;94005.72;5082206;28;20976;-71
2022/12/18 09:13:18;;;;;;;26.40;20.57;;;;;;;4.49;92.91;94001.09;5089791;28;20192;-71
2022/12/18 09:15:47;;;;;;;23.60;19.47;;;;;;;4.54;92.57;94003.84;5080607;28;20613;-72
2022/12/18 09:18:14;;;;;;;29.37;21.17;;;;;;;4.74;92.49;94001.94;5070041;28;20176;-71
2022/12/18 09:20:40;;;;;;;23.93;19.17;;;;;;;4.72;92.04;93991.00;5087051;28;20228;-71
2022/12/18 09:23:06;;;;;;;25.00;20.07;;;;;;;4.51;92.42;94004.22;5087861;28;20215;-72
2022/12/18 09:25:33;;;;;;;30.23;21.53;;;;;;;4.25;93.71;94001.78;5087863;28;20172;-70
2022/12/18 09:28:10;;;;;;;28.87;20.40;;;;;;;4.10;94.75;93996.09;5086834;28;20177;-70
2022/12/18 09:30:38;;;;;;;24.20;20.00;;;;;;;4.34;94.17;93982.44;5081551;28;20191;-73
2022/12/18 09:33:03;;;;;;;26.80;19.33;;;;;;;4.50;93.28;94004.44;5088102;28;20185;-71
2022/12/18 09:35:29;;;;;;;29.97;21.30;;;;;;;4.45;92.10;94005.06;5086506;28;20212;-71
2022/12/18 09:37:54;;;;;;;26.73;20.70;;;;;;;4.13;94.28;94006.03;5087071;28;21544;-72
2022/12/18 09:40:24;;;;;;;26.00;20.40;;;;;;;4.57;93.25;94002.63;5088105;28;20209;-72
2022/12/18 09:42:57;;;;;;;28.37;21.40;;;;;;;4.40;93.71;94009.28;5088714;28;20215;-72
2022/12/18 09:45:24;;;;;;;24.30;19.37;;;;;;;4.32;93.27;94015.50;5087355;28;20176;-73
2022/12/18 09:47:52;;;;;;;23.33;19.20;;;;;;;4.51;93.93;94009.41;5068074;28;20189;-72
2022/12/18 09:50:26;;;;;;;26.07;20.90;;;;;;;4.62;92.47;94011.34;5088441;28;20280;-72
2022/12/18 09:52:56;;;;;;;29.23;22.57;;;;;;;4.59;94.06;94010.97;5087296;28;20226;-72
2022/12/18 09:55:37;;;;;;;30.13;20.83;;;;;;;4.64;91.59;93998.19;5088202;28;20185;-70
2022/12/18 09:58:34;;;;;;;26.33;21.73;;;;;;;4.76;94.61;94009.47;5088234;28;20195;-70
2022/12/18 10:01:00;;;;;;;29.37;20.60;;;;;;;4.97;93.40;93986.66;5082133;28;20243;-72
2022/12/18 10:03:26;;;;;;;25.37;20.03;;;;;;;4.57;92.98;94007.81;5086203;28;20256;-71
2022/12/18 10:06:01;;;;;;;24.40;20.10;;;;;;;4.75;90.50;94000.91;5087146;28;20232;-72
2022/12/18 10:08:45;;;;;;;20.27;17.63;;;;;;;4.80;87.48;94005.47;5070810;28;20189;-76
2022/12/18 10:11:48;;;;;;;18.17;16.17;;;;;;;4.86;85.90;94002.84;5086730;28;20244;-74
2022/12/18 10:14:29;;;;;;;20.23;17.03;;;;;;;4.87;86.78;94009.59;5079851;28;20188;-75
2022/12/18 10:17:00;;;;;;;18.93;16.90;;;;;;;4.66;88.14;94007.34;5067295;28;20225;-72
2022/12/18 10:19:52;;;;;;;22.77;18.50;;;;;;;4.68;88.08;94007.94;5062483;28;20184;-73
2022/12/18 10:22:43;;;;;;;19.40;17.33;;;;;;;4.63;89.22;94018.13;5085162;28;20477;-75
2022/12/18 10:25:45;;;;;;;21.80;17.43;;;;;;;4.75;87.63;94020.81;5085701;28;20200;-78
2022/12/18 10:28:14;;;;;;;21.47;18.40;;;;;;;4.64;89.83;94014.50;5078610;28;20224;-75
2022/12/18 10:30:41;;;;;;;22.80;18.83;;;;;;;4.48;89.69;94020.16;5085693;28;20232;-75
2022/12/18 10:33:13;;;;;;;25.07;18.97;;;;;;;4.55;87.69;94008.00;5087666;28;20181;-73
2022/12/18 10:35:42;;;;;;;26.27;19.37;;;;;;;4.46;88.04;94017.00;5078915;28;20244;-71
2022/12/18 10:38:13;;;;;;;21.87;18.77;;;;;;;4.59;87.54;94022.09;5074448;28;20257;-71
2022/12/18 10:41:04;;;;;;;24.33;19.83;;;;;;;4.65;88.29;94015.31;5069792;28;20224;-71
2022/12/18 10:43:39;;;;;;;25.47;19.20;;;;;;;4.19;90.78;94007.78;5088956;28;20192;-71
2022/12/18 10:46:07;;;;;;;27.70;20.20;;;;;;;4.53;89.76;94010.00;5087820;28;20287;-71
2022/12/18 10:48:55;;;;;;;25.67;20.47;;;;;;;4.39;88.91;94008.47;5087576;28;20185;-71
2022/12/18 10:51:27;;;;;;;24.10;19.47;;;;;;;4.07;88.59;93996.50;5087651;28;20284;-71
2022/12/18 10:54:16;;;;;;;20.43;18.17;;;;;;;4.19;88.45;94007.78;5087387;28;20181;-71
2022/12/18 10:56:42;;;;;;;24.53;18.30;;;;;;;4.09;88.89;94010.03;5080052;28;20228;-71
2022/12/18 10:59:11;;;;;;;21.70;18.67;;;;;;;4.12;88.04;93988.94;5091875;28;20236;-71
2022/12/18 11:01:57;;;;;;;24.40;19.00;;;;;;;4.21;88.94;94005.00;5082296;28;21029;-71
2022/12/18 11:04:29;;;;;;;21.20;18.23;;;;;;;4.50;88.29;94002.66;5091984;28;20173;-71
2022/12/18 11:07:04;;;;;;;21.07;17.93;;;;;;;4.41;86.58;94005.69;5091806;28;20232;-71
2022/12/18 11:09:37;;;;;;;22.90;18.03;;;;;;;4.16;84.71;94009.97;5091828;28;20226;-71
2022/12/18 11:12:15;;;;;;;21.83;18.07;;;;;;;4.04;86.52;94012.44;5091119;28;20227;-71
2022/12/18 11:14:53;;;;;;;18.40;16.40;;;;;;;3.91;84.74;94006.50;5089685;28;20196;-71
2022/12/18 11:17:30;;;;;;;23.10;18.67;;;;;;;3.88;86.82;93987.03;5082676;28;20352;-71
2022/12/18 11:20:03;;;;;;;20.87;17.07;;;;;;;4.03;84.63;94004.88;5084600;28;20224;-71
2022/12/18 11:22:36;;;;;;;18.90;16.43;;;;;;;4.19;83.26;94009.56;5080505;28;20236;-71
2022/12/18 11:25:17;;;;;;;18.13;16.33;;;;;;;3.97;82.20;94003.88;5090629;28;21081;-71
2022/12/18 11:27:52;;;;;;;18.90;16.13;;;;;;;4.14;81.11;94010.19;5092031;28;20212;-71
2022/12/18 11:30:22;;;;;;;17.27;15.67;;;;;;;4.11;82.24;94007.25;5086253;28;20249;-71
2022/12/18 11:32:52;;;;;;;18.17;16.27;;;;;;;3.97;80.79;94006.47;5086742;28;20247;-71
2022/12/18 11:35:32;;;;;;;18.80;16.80;;;;;;;3.95;80.61;94005.91;5091800;28;20240;-71
2022/12/18 11:38:06;;;;;;;20.30;17.27;;;;;;;3.68;81.42;93986.31;5091070;28;20235;-71